sensor_id;sensor_type;location;lat;lon;timestamp;P1;durP1;ratioP1;P2;durP2;ratioP2
8291;SDS011;4184;42.724;23.308;2022-09-13T00:00:47;3.53;;;2.20;;
8291;SDS011;4184;42.724;23.308;2022-09-13T00:03:15;2.13;;;2.03;;
8291;SDS011;4184;42.724;23.308;2022-09-13T00:05:44;2.57;;;2.30;;
8291;SDS011;4184;42.724;23.308;2022-09-13T00:08:12;2.40;;;2.20;;
8291;SDS011;4184;42.724;23.308;2022-09-13T00:10:40;2.10;;;2.00;;
8291;SDS011;4184;42.724;23.308;2022-09-13T00:13:10;2.13;;;2.03;;
8291;SDS011;4184;42.724;23.308;2022-09-13T00:15:41;2.10;;;2.00;;
8291;SDS011;4184;42.724;23.308;2022-09-13T00:18:09;2.03;;;1.93;;
8291;SDS011;4184;42.724;23.308;2022-09-13T00:20:37;1.97;;;1.80;;
8291;SDS011;4184;42.724;23.308;2022-09-13T00:23:05;3.60;;;2.20;;
8291;SDS011;4184;42.724;23.308;2022-09-13T00:25:33;2.23;;;2.03;;
8291;SDS011;4184;42.724;23.308;2022-09-13T00:28:01;2.20;;;2.10;;
8291;SDS011;4184;42.724;23.308;2022-09-13T00:30:30;1.93;;;1.83;;
8291;SDS011;4184;42.724;23.308;2022-09-13T00:32:58;2.00;;;1.90;;
8291;SDS011;4184;42.724;23.308;2022-09-13T00:35:28;2.03;;;1.90;;
8291;SDS011;4184;42.724;23.308;2022-09-13T00:37:58;2.20;;;2.00;;
8291;SDS011;4184;42.724;23.308;2022-09-13T00:40:26;1.90;;;1.80;;
8291;SDS011;4184;42.724;23.308;2022-09-13T00:42:54;2.57;;;2.37;;
8291;SDS011;4184;42.724;23.308;2022-09-13T00:45:22;1.80;;;1.70;;
8291;SDS011;4184;42.724;23.308;2022-09-13T00:47:52;1.83;;;1.73;;
8291;SDS011;4184;42.724;23.308;2022-09-13T00:50:22;2.07;;;1.87;;
8291;SDS011;4184;42.724;23.308;2022-09-13T00:52:57;2.23;;;2.03;;
8291;SDS011;4184;42.724;23.308;2022-09-13T00:55:29;1.70;;;1.60;;
8291;SDS011;4184;42.724;23.308;2022-09-13T00:58:01;2.20;;;2.00;;
8291;SDS011;4184;42.724;23.308;2022-09-13T01:00:34;2.47;;;2.27;;
8291;SDS011;4184;42.724;23.308;2022-09-13T01:03:06;2.00;;;1.90;;
8291;SDS011;4184;42.724;23.308;2022-09-13T01:05:37;3.57;;;2.10;;
8291;SDS011;4184;42.724;23.308;2022-09-13T01:08:08;2.03;;;1.93;;
8291;SDS011;4184;42.724;23.308;2022-09-13T01:10:40;2.20;;;2.03;;
8291;SDS011;4184;42.724;23.308;2022-09-13T01:13:09;2.00;;;1.90;;
8291;SDS011;4184;42.724;23.308;2022-09-13T01:15:41;2.30;;;2.10;;
8291;SDS011;4184;42.724;23.308;2022-09-13T01:18:10;2.07;;;1.97;;
8291;SDS011;4184;42.724;23.308;2022-09-13T01:20:45;2.73;;;2.30;;
8291;SDS011;4184;42.724;23.308;2022-09-13T01:23:48;2.03;;;1.93;;
8291;SDS011;4184;42.724;23.308;2022-09-13T01:26:49;2.03;;;1.90;;
8291;SDS011;4184;42.724;23.308;2022-09-13T01:32:40;2.13;;;2.03;;
8291;SDS011;4184;42.724;23.308;2022-09-13T01:35:30;2.17;;;1.97;;
8291;SDS011;4184;42.724;23.308;2022-09-13T01:38:11;2.03;;;1.83;;
8291;SDS011;4184;42.724;23.308;2022-09-13T01:40:51;2.30;;;2.10;;
8291;SDS011;4184;42.724;23.308;2022-09-13T01:43:34;2.50;;;2.30;;
8291;SDS011;4184;42.724;23.308;2022-09-13T01:46:14;2.20;;;2.10;;
8291;SDS011;4184;42.724;23.308;2022-09-13T01:48:53;2.10;;;2.00;;
8291;SDS011;4184;42.724;23.308;2022-09-13T01:51:26;2.17;;;1.97;;
8291;SDS011;4184;42.724;23.308;2022-09-13T01:54:01;2.30;;;2.10;;
8291;SDS011;4184;42.724;23.308;2022-09-13T01:56:39;2.83;;;2.30;;
8291;SDS011;4184;42.724;23.308;2022-09-13T01:59:19;2.20;;;2.00;;
8291;SDS011;4184;42.724;23.308;2022-09-13T02:01:56;2.23;;;2.07;;
8291;SDS011;4184;42.724;23.308;2022-09-13T02:04:31;2.40;;;2.20;;
8291;SDS011;4184;42.724;23.308;2022-09-13T02:07:04;2.20;;;2.00;;
8291;SDS011;4184;42.724;23.308;2022-09-13T02:09:39;4.53;;;2.33;;
8291;SDS011;4184;42.724;23.308;2022-09-13T02:12:12;2.57;;;1.93;;
8291;SDS011;4184;42.724;23.308;2022-09-13T02:14:45;2.30;;;2.10;;
8291;SDS011;4184;42.724;23.308;2022-09-13T02:17:19;2.37;;;2.17;;
8291;SDS011;4184;42.724;23.308;2022-09-13T02:19:51;2.47;;;2.27;;
8291;SDS011;4184;42.724;23.308;2022-09-13T02:22:22;2.13;;;2.03;;
8291;SDS011;4184;42.724;23.308;2022-09-13T02:24:55;2.20;;;2.10;;
8291;SDS011;4184;42.724;23.308;2022-09-13T02:27:28;2.50;;;2.30;;
8291;SDS011;4184;42.724;23.308;2022-09-13T02:30:00;2.00;;;1.90;;
8291;SDS011;4184;42.724;23.308;2022-09-13T02:32:34;2.67;;;2.00;;
8291;SDS011;4184;42.724;23.308;2022-09-13T02:35:06;2.30;;;2.20;;
8291;SDS011;4184;42.724;23.308;2022-09-13T02:37:39;2.10;;;2.00;;
8291;SDS011;4184;42.724;23.308;2022-09-13T02:40:12;2.23;;;2.13;;
8291;SDS011;4184;42.724;23.308;2022-09-13T02:42:49;2.60;;;2.40;;
8291;SDS011;4184;42.724;23.308;2022-09-13T02:45:22;2.40;;;2.20;;
8291;SDS011;4184;42.724;23.308;2022-09-13T02:47:58;2.50;;;2.30;;
8291;SDS011;4184;42.724;23.308;2022-09-13T02:50:35;2.47;;;2.27;;
8291;SDS011;4184;42.724;23.308;2022-09-13T02:53:13;2.50;;;2.30;;
8291;SDS011;4184;42.724;23.308;2022-09-13T02:55:50;2.40;;;2.20;;
8291;SDS011;4184;42.724;23.308;2022-09-13T02:58:26;2.60;;;2.40;;
8291;SDS011;4184;42.724;23.308;2022-09-13T03:00:59;2.37;;;2.17;;
8291;SDS011;4184;42.724;23.308;2022-09-13T03:03:28;2.37;;;2.17;;
8291;SDS011;4184;42.724;23.308;2022-09-13T03:05:56;2.30;;;2.10;;
8291;SDS011;4184;42.724;23.308;2022-09-13T03:08:23;2.43;;;2.10;;
8291;SDS011;4184;42.724;23.308;2022-09-13T03:10:56;2.70;;;2.50;;
8291;SDS011;4184;42.724;23.308;2022-09-13T03:13:42;2.57;;;2.37;;
8291;SDS011;4184;42.724;23.308;2022-09-13T03:16:36;3.40;;;2.13;;
8291;SDS011;4184;42.724;23.308;2022-09-13T03:19:20;2.57;;;2.37;;
8291;SDS011;4184;42.724;23.308;2022-09-13T03:22:06;2.47;;;2.20;;
8291;SDS011;4184;42.724;23.308;2022-09-13T03:24:55;3.07;;;2.40;;
8291;SDS011;4184;42.724;23.308;2022-09-13T03:27:32;2.80;;;2.60;;
8291;SDS011;4184;42.724;23.308;2022-09-13T03:30:06;3.40;;;2.23;;
8291;SDS011;4184;42.724;23.308;2022-09-13T03:32:40;2.50;;;2.30;;
8291;SDS011;4184;42.724;23.308;2022-09-13T03:35:19;2.60;;;2.40;;
8291;SDS011;4184;42.724;23.308;2022-09-13T03:37:55;2.10;;;2.00;;
8291;SDS011;4184;42.724;23.308;2022-09-13T03:40:31;2.63;;;2.30;;
8291;SDS011;4184;42.724;23.308;2022-09-13T03:43:07;3.17;;;2.33;;
8291;SDS011;4184;42.724;23.308;2022-09-13T03:45:41;3.17;;;2.40;;
8291;SDS011;4184;42.724;23.308;2022-09-13T03:48:13;3.10;;;2.80;;
8291;SDS011;4184;42.724;23.308;2022-09-13T03:50:43;3.10;;;2.80;;
8291;SDS011;4184;42.724;23.308;2022-09-13T03:53:13;2.67;;;2.47;;
8291;SDS011;4184;42.724;23.308;2022-09-13T03:55:45;3.13;;;2.50;;
8291;SDS011;4184;42.724;23.308;2022-09-13T03:58:14;2.90;;;2.60;;
8291;SDS011;4184;42.724;23.308;2022-09-13T04:00:43;3.47;;;2.93;;
8291;SDS011;4184;42.724;23.308;2022-09-13T04:03:11;2.40;;;2.20;;
8291;SDS011;4184;42.724;23.308;2022-09-13T04:05:39;2.70;;;2.50;;
8291;SDS011;4184;42.724;23.308;2022-09-13T04:08:08;3.10;;;2.60;;
8291;SDS011;4184;42.724;23.308;2022-09-13T04:10:35;2.80;;;2.60;;
8291;SDS011;4184;42.724;23.308;2022-09-13T04:13:04;3.60;;;3.00;;
8291;SDS011;4184;42.724;23.308;2022-09-13T04:15:32;3.00;;;2.73;;
8291;SDS011;4184;42.724;23.308;2022-09-13T04:18:00;2.87;;;2.57;;
8291;SDS011;4184;42.724;23.308;2022-09-13T04:20:28;2.80;;;2.60;;
8291;SDS011;4184;42.724;23.308;2022-09-13T04:22:55;2.37;;;2.20;;
8291;SDS011;4184;42.724;23.308;2022-09-13T04:25:24;2.70;;;2.50;;
8291;SDS011;4184;42.724;23.308;2022-09-13T04:27:52;2.33;;;2.13;;
8291;SDS011;4184;42.724;23.308;2022-09-13T04:30:20;4.53;;;2.60;;
8291;SDS011;4184;42.724;23.308;2022-09-13T04:32:48;3.43;;;2.80;;
8291;SDS011;4184;42.724;23.308;2022-09-13T04:35:16;2.50;;;2.30;;
8291;SDS011;4184;42.724;23.308;2022-09-13T04:37:43;2.60;;;2.40;;
8291;SDS011;4184;42.724;23.308;2022-09-13T04:40:11;2.67;;;2.47;;
8291;SDS011;4184;42.724;23.308;2022-09-13T04:42:41;2.70;;;2.50;;
8291;SDS011;4184;42.724;23.308;2022-09-13T04:45:10;2.90;;;2.60;;
8291;SDS011;4184;42.724;23.308;2022-09-13T04:47:37;2.53;;;2.33;;
8291;SDS011;4184;42.724;23.308;2022-09-13T04:50:05;2.80;;;2.40;;
8291;SDS011;4184;42.724;23.308;2022-09-13T04:52:34;2.37;;;2.17;;
8291;SDS011;4184;42.724;23.308;2022-09-13T04:55:01;2.77;;;2.40;;
8291;SDS011;4184;42.724;23.308;2022-09-13T04:57:29;3.97;;;2.57;;
8291;SDS011;4184;42.724;23.308;2022-09-13T04:59:58;2.83;;;2.60;;
8291;SDS011;4184;42.724;23.308;2022-09-13T05:02:26;3.40;;;2.97;;
8291;SDS011;4184;42.724;23.308;2022-09-13T05:04:53;3.63;;;3.00;;
8291;SDS011;4184;42.724;23.308;2022-09-13T05:07:21;3.10;;;2.77;;
8291;SDS011;4184;42.724;23.308;2022-09-13T05:09:48;2.93;;;2.60;;
8291;SDS011;4184;42.724;23.308;2022-09-13T05:12:16;2.50;;;2.30;;
8291;SDS011;4184;42.724;23.308;2022-09-13T05:14:43;2.97;;;2.67;;
8291;SDS011;4184;42.724;23.308;2022-09-13T05:17:12;3.00;;;2.70;;
8291;SDS011;4184;42.724;23.308;2022-09-13T05:19:40;4.00;;;2.90;;
8291;SDS011;4184;42.724;23.308;2022-09-13T05:22:07;3.57;;;2.87;;
8291;SDS011;4184;42.724;23.308;2022-09-13T05:24:35;5.87;;;3.17;;
8291;SDS011;4184;42.724;23.308;2022-09-13T05:27:02;3.30;;;2.60;;
8291;SDS011;4184;42.724;23.308;2022-09-13T05:29:30;3.57;;;2.90;;
8291;SDS011;4184;42.724;23.308;2022-09-13T05:31:58;5.53;;;3.63;;
8291;SDS011;4184;42.724;23.308;2022-09-13T05:34:26;2.73;;;2.53;;
8291;SDS011;4184;42.724;23.308;2022-09-13T05:36:54;3.50;;;2.37;;
8291;SDS011;4184;42.724;23.308;2022-09-13T05:39:21;2.90;;;2.70;;
8291;SDS011;4184;42.724;23.308;2022-09-13T05:41:49;3.53;;;3.00;;
8291;SDS011;4184;42.724;23.308;2022-09-13T05:44:17;2.40;;;2.20;;
8291;SDS011;4184;42.724;23.308;2022-09-13T05:46:45;3.93;;;2.83;;
8291;SDS011;4184;42.724;23.308;2022-09-13T05:49:13;2.90;;;2.60;;
8291;SDS011;4184;42.724;23.308;2022-09-13T05:51:42;2.53;;;2.30;;
8291;SDS011;4184;42.724;23.308;2022-09-13T05:54:10;2.60;;;2.40;;
8291;SDS011;4184;42.724;23.308;2022-09-13T05:56:38;2.73;;;2.43;;
8291;SDS011;4184;42.724;23.308;2022-09-13T05:59:05;3.00;;;2.37;;
8291;SDS011;4184;42.724;23.308;2022-09-13T06:01:36;2.63;;;2.43;;
8291;SDS011;4184;42.724;23.308;2022-09-13T06:04:04;2.67;;;2.47;;
8291;SDS011;4184;42.724;23.308;2022-09-13T06:06:31;3.10;;;2.80;;
8291;SDS011;4184;42.724;23.308;2022-09-13T06:09:02;2.73;;;2.20;;
8291;SDS011;4184;42.724;23.308;2022-09-13T06:11:31;2.43;;;2.23;;
8291;SDS011;4184;42.724;23.308;2022-09-13T06:13:59;3.93;;;2.53;;
8291;SDS011;4184;42.724;23.308;2022-09-13T06:16:26;2.93;;;2.67;;
8291;SDS011;4184;42.724;23.308;2022-09-13T06:18:54;2.97;;;2.77;;
8291;SDS011;4184;42.724;23.308;2022-09-13T06:21:22;3.40;;;2.30;;
8291;SDS011;4184;42.724;23.308;2022-09-13T06:23:51;2.47;;;2.27;;
8291;SDS011;4184;42.724;23.308;2022-09-13T06:26:21;3.77;;;2.57;;
8291;SDS011;4184;42.724;23.308;2022-09-13T06:28:50;2.80;;;2.50;;
8291;SDS011;4184;42.724;23.308;2022-09-13T06:31:19;2.77;;;2.40;;
8291;SDS011;4184;42.724;23.308;2022-09-13T06:33:48;3.03;;;2.73;;
8291;SDS011;4184;42.724;23.308;2022-09-13T06:36:22;2.40;;;2.20;;
8291;SDS011;4184;42.724;23.308;2022-09-13T06:38:50;2.57;;;2.37;;
8291;SDS011;4184;42.724;23.308;2022-09-13T06:41:18;2.40;;;2.20;;
8291;SDS011;4184;42.724;23.308;2022-09-13T06:43:51;3.30;;;2.30;;
8291;SDS011;4184;42.724;23.308;2022-09-13T06:46:19;2.33;;;2.13;;
8291;SDS011;4184;42.724;23.308;2022-09-13T06:48:47;2.43;;;2.23;;
8291;SDS011;4184;42.724;23.308;2022-09-13T06:51:15;2.87;;;2.53;;
8291;SDS011;4184;42.724;23.308;2022-09-13T06:53:44;2.90;;;2.33;;
8291;SDS011;4184;42.724;23.308;2022-09-13T06:56:14;3.03;;;2.40;;
8291;SDS011;4184;42.724;23.308;2022-09-13T06:58:46;3.77;;;2.53;;
8291;SDS011;4184;42.724;23.308;2022-09-13T07:01:16;2.53;;;2.33;;
8291;SDS011;4184;42.724;23.308;2022-09-13T07:03:45;2.50;;;2.20;;
8291;SDS011;4184;42.724;23.308;2022-09-13T07:06:15;2.40;;;2.20;;
8291;SDS011;4184;42.724;23.308;2022-09-13T07:08:44;2.57;;;2.20;;
8291;SDS011;4184;42.724;23.308;2022-09-13T07:11:13;2.77;;;2.50;;
8291;SDS011;4184;42.724;23.308;2022-09-13T07:13:46;3.27;;;2.50;;
8291;SDS011;4184;42.724;23.308;2022-09-13T07:16:15;3.70;;;2.70;;
8291;SDS011;4184;42.724;23.308;2022-09-13T07:18:44;2.53;;;2.33;;
8291;SDS011;4184;42.724;23.308;2022-09-13T07:21:18;2.53;;;2.27;;
8291;SDS011;4184;42.724;23.308;2022-09-13T07:23:46;2.50;;;2.30;;
8291;SDS011;4184;42.724;23.308;2022-09-13T07:26:14;2.43;;;2.20;;
8291;SDS011;4184;42.724;23.308;2022-09-13T07:28:42;2.20;;;2.00;;
8291;SDS011;4184;42.724;23.308;2022-09-13T07:31:13;2.37;;;2.07;;
8291;SDS011;4184;42.724;23.308;2022-09-13T07:33:44;2.77;;;2.57;;
8291;SDS011;4184;42.724;23.308;2022-09-13T07:36:13;3.67;;;2.63;;
8291;SDS011;4184;42.724;23.308;2022-09-13T07:38:41;3.20;;;2.90;;
8291;SDS011;4184;42.724;23.308;2022-09-13T07:41:10;3.97;;;2.77;;
8291;SDS011;4184;42.724;23.308;2022-09-13T07:43:38;3.33;;;2.27;;
8291;SDS011;4184;42.724;23.308;2022-09-13T07:46:07;2.80;;;2.50;;
8291;SDS011;4184;42.724;23.308;2022-09-13T07:48:38;2.13;;;1.93;;
8291;SDS011;4184;42.724;23.308;2022-09-13T07:51:07;3.43;;;2.10;;
8291;SDS011;4184;42.724;23.308;2022-09-13T07:53:36;2.40;;;2.20;;
8291;SDS011;4184;42.724;23.308;2022-09-13T07:56:06;3.37;;;2.07;;
8291;SDS011;4184;42.724;23.308;2022-09-13T07:58:35;2.20;;;1.97;;
8291;SDS011;4184;42.724;23.308;2022-09-13T08:01:04;3.07;;;1.90;;
8291;SDS011;4184;42.724;23.308;2022-09-13T08:03:34;1.90;;;1.70;;
8291;SDS011;4184;42.724;23.308;2022-09-13T08:06:03;2.20;;;2.00;;
8291;SDS011;4184;42.724;23.308;2022-09-13T08:08:32;2.50;;;1.90;;
8291;SDS011;4184;42.724;23.308;2022-09-13T08:11:02;1.90;;;1.80;;
8291;SDS011;4184;42.724;23.308;2022-09-13T08:13:30;2.10;;;1.90;;
8291;SDS011;4184;42.724;23.308;2022-09-13T08:16:00;2.10;;;1.90;;
8291;SDS011;4184;42.724;23.308;2022-09-13T08:18:28;1.70;;;1.60;;
8291;SDS011;4184;42.724;23.308;2022-09-13T08:20:58;1.80;;;1.70;;
8291;SDS011;4184;42.724;23.308;2022-09-13T08:23:26;2.17;;;1.97;;
8291;SDS011;4184;42.724;23.308;2022-09-13T08:25:59;2.80;;;1.83;;
8291;SDS011;4184;42.724;23.308;2022-09-13T08:28:27;2.00;;;1.90;;
8291;SDS011;4184;42.724;23.308;2022-09-13T08:31:01;1.90;;;1.80;;
8291;SDS011;4184;42.724;23.308;2022-09-13T08:33:29;1.87;;;1.50;;
8291;SDS011;4184;42.724;23.308;2022-09-13T08:35:59;1.47;;;1.37;;
8291;SDS011;4184;42.724;23.308;2022-09-13T08:38:27;1.80;;;1.60;;
8291;SDS011;4184;42.724;23.308;2022-09-13T08:40:55;1.60;;;1.50;;
8291;SDS011;4184;42.724;23.308;2022-09-13T08:43:28;1.80;;;1.70;;
8291;SDS011;4184;42.724;23.308;2022-09-13T08:46:08;1.73;;;1.63;;
8291;SDS011;4184;42.724;23.308;2022-09-13T08:48:44;1.83;;;1.67;;
8291;SDS011;4184;42.724;23.308;2022-09-13T08:51:19;1.63;;;1.43;;
8291;SDS011;4184;42.724;23.308;2022-09-13T08:53:57;2.67;;;1.80;;
8291;SDS011;4184;42.724;23.308;2022-09-13T08:56:28;1.53;;;1.43;;
8291;SDS011;4184;42.724;23.308;2022-09-13T08:59:20;2.10;;;1.40;;
8291;SDS011;4184;42.724;23.308;2022-09-13T09:01:56;1.50;;;1.40;;
8291;SDS011;4184;42.724;23.308;2022-09-13T09:04:37;1.50;;;1.40;;
8291;SDS011;4184;42.724;23.308;2022-09-13T09:07:11;1.40;;;1.30;;
8291;SDS011;4184;42.724;23.308;2022-09-13T09:09:43;2.30;;;1.50;;
8291;SDS011;4184;42.724;23.308;2022-09-13T09:12:18;1.87;;;1.67;;
8291;SDS011;4184;42.724;23.308;2022-09-13T09:14:55;1.87;;;1.53;;
8291;SDS011;4184;42.724;23.308;2022-09-13T09:17:28;1.97;;;1.50;;
8291;SDS011;4184;42.724;23.308;2022-09-13T09:20:02;1.77;;;1.43;;
8291;SDS011;4184;42.724;23.308;2022-09-13T09:22:35;1.90;;;1.70;;
8291;SDS011;4184;42.724;23.308;2022-09-13T09:25:03;2.00;;;1.50;;
8291;SDS011;4184;42.724;23.308;2022-09-13T09:27:31;1.30;;;1.20;;
8291;SDS011;4184;42.724;23.308;2022-09-13T09:29:59;1.70;;;1.60;;
8291;SDS011;4184;42.724;23.308;2022-09-13T09:32:32;1.50;;;1.40;;
8291;SDS011;4184;42.724;23.308;2022-09-13T09:35:26;1.50;;;1.30;;
8291;SDS011;4184;42.724;23.308;2022-09-13T09:38:13;2.40;;;1.50;;
8291;SDS011;4184;42.724;23.308;2022-09-13T09:40:59;1.50;;;1.40;;
8291;SDS011;4184;42.724;23.308;2022-09-13T09:43:31;1.70;;;1.60;;
8291;SDS011;4184;42.724;23.308;2022-09-13T09:46:04;1.37;;;1.37;;
8291;SDS011;4184;42.724;23.308;2022-09-13T09:48:37;1.53;;;1.43;;
8291;SDS011;4184;42.724;23.308;2022-09-13T09:51:10;1.70;;;1.60;;
8291;SDS011;4184;42.724;23.308;2022-09-13T09:53:44;1.63;;;1.50;;
8291;SDS011;4184;42.724;23.308;2022-09-13T09:56:19;2.53;;;1.57;;
8291;SDS011;4184;42.724;23.308;2022-09-13T09:58:48;1.67;;;1.57;;
8291;SDS011;4184;42.724;23.308;2022-09-13T10:01:26;1.70;;;1.37;;
8291;SDS011;4184;42.724;23.308;2022-09-13T10:04:05;1.50;;;1.40;;
8291;SDS011;4184;42.724;23.308;2022-09-13T10:06:46;1.50;;;1.40;;
8291;SDS011;4184;42.724;23.308;2022-09-13T10:09:17;1.60;;;1.50;;
8291;SDS011;4184;42.724;23.308;2022-09-13T10:11:47;1.40;;;1.30;;
8291;SDS011;4184;42.724;23.308;2022-09-13T10:14:28;1.60;;;1.50;;
8291;SDS011;4184;42.724;23.308;2022-09-13T10:17:02;1.87;;;1.77;;
8291;SDS011;4184;42.724;23.308;2022-09-13T10:19:39;1.70;;;1.60;;
8291;SDS011;4184;42.724;23.308;2022-09-13T10:22:09;1.57;;;1.47;;
8291;SDS011;4184;42.724;23.308;2022-09-13T10:24:39;1.93;;;1.70;;
8291;SDS011;4184;42.724;23.308;2022-09-13T10:27:17;1.70;;;1.60;;
8291;SDS011;4184;42.724;23.308;2022-09-13T10:29:49;1.77;;;1.67;;
8291;SDS011;4184;42.724;23.308;2022-09-13T10:32:20;1.80;;;1.70;;
8291;SDS011;4184;42.724;23.308;2022-09-13T10:34:49;1.90;;;1.80;;
8291;SDS011;4184;42.724;23.308;2022-09-13T10:37:18;2.40;;;2.17;;
8291;SDS011;4184;42.724;23.308;2022-09-13T10:39:54;2.93;;;2.10;;
8291;SDS011;4184;42.724;23.308;2022-09-13T10:42:25;2.00;;;1.90;;
8291;SDS011;4184;42.724;23.308;2022-09-13T10:44:57;1.70;;;1.60;;
8291;SDS011;4184;42.724;23.308;2022-09-13T10:47:28;1.83;;;1.53;;
8291;SDS011;4184;42.724;23.308;2022-09-13T10:50:09;1.63;;;1.53;;
8291;SDS011;4184;42.724;23.308;2022-09-13T10:52:47;1.70;;;1.60;;
8291;SDS011;4184;42.724;23.308;2022-09-13T10:55:24;1.53;;;1.43;;
8291;SDS011;4184;42.724;23.308;2022-09-13T10:58:13;1.60;;;1.50;;
8291;SDS011;4184;42.724;23.308;2022-09-13T11:04:21;1.70;;;1.60;;
8291;SDS011;4184;42.724;23.308;2022-09-13T11:07:10;1.90;;;1.80;;
8291;SDS011;4184;42.724;23.308;2022-09-13T11:09:55;2.00;;;1.90;;
8291;SDS011;4184;42.724;23.308;2022-09-13T11:12:33;2.57;;;1.80;;
8291;SDS011;4184;42.724;23.308;2022-09-13T11:15:09;1.77;;;1.67;;
8291;SDS011;4184;42.724;23.308;2022-09-13T11:18:00;2.03;;;1.83;;
8291;SDS011;4184;42.724;23.308;2022-09-13T11:20:44;2.20;;;2.00;;
8291;SDS011;4184;42.724;23.308;2022-09-13T11:23:32;2.17;;;1.67;;
8291;SDS011;4184;42.724;23.308;2022-09-13T11:26:18;1.90;;;1.70;;
8291;SDS011;4184;42.724;23.308;2022-09-13T11:28:59;1.80;;;1.70;;
8291;SDS011;4184;42.724;23.308;2022-09-13T11:31:41;2.40;;;1.83;;
8291;SDS011;4184;42.724;23.308;2022-09-13T11:34:19;1.70;;;1.60;;
8291;SDS011;4184;42.724;23.308;2022-09-13T11:37:04;1.90;;;1.77;;
8291;SDS011;4184;42.724;23.308;2022-09-13T11:39:44;1.80;;;1.60;;
8291;SDS011;4184;42.724;23.308;2022-09-13T11:42:22;1.77;;;1.67;;
8291;SDS011;4184;42.724;23.308;2022-09-13T11:50:41;1.80;;;1.70;;
8291;SDS011;4184;42.724;23.308;2022-09-13T11:53:27;1.57;;;1.47;;
8291;SDS011;4184;42.724;23.308;2022-09-13T11:56:15;1.20;;;1.20;;
8291;SDS011;4184;42.724;23.308;2022-09-13T11:58:50;1.70;;;1.60;;
8291;SDS011;4184;42.724;23.308;2022-09-13T12:01:24;1.80;;;1.70;;
8291;SDS011;4184;42.724;23.308;2022-09-13T12:03:56;2.10;;;1.80;;
8291;SDS011;4184;42.724;23.308;2022-09-13T12:06:27;1.90;;;1.80;;
8291;SDS011;4184;42.724;23.308;2022-09-13T12:08:58;1.70;;;1.60;;
8291;SDS011;4184;42.724;23.308;2022-09-13T12:11:31;1.83;;;1.73;;
8291;SDS011;4184;42.724;23.308;2022-09-13T12:14:24;1.80;;;1.70;;
8291;SDS011;4184;42.724;23.308;2022-09-13T12:16:58;1.80;;;1.70;;
8291;SDS011;4184;42.724;23.308;2022-09-13T12:19:39;1.63;;;1.53;;
8291;SDS011;4184;42.724;23.308;2022-09-13T12:22:11;2.17;;;1.90;;
8291;SDS011;4184;42.724;23.308;2022-09-13T12:24:41;1.70;;;1.60;;
8291;SDS011;4184;42.724;23.308;2022-09-13T12:27:14;1.53;;;1.43;;
8291;SDS011;4184;42.724;23.308;2022-09-13T12:29:50;1.70;;;1.60;;
8291;SDS011;4184;42.724;23.308;2022-09-13T12:32:21;1.63;;;1.50;;
8291;SDS011;4184;42.724;23.308;2022-09-13T12:34:49;1.70;;;1.60;;
8291;SDS011;4184;42.724;23.308;2022-09-13T12:37:28;4.07;;;1.97;;
8291;SDS011;4184;42.724;23.308;2022-09-13T12:43:10;2.00;;;1.60;;
8291;SDS011;4184;42.724;23.308;2022-09-13T12:52:11;2.57;;;1.30;;
8291;SDS011;4184;42.724;23.308;2022-09-13T12:57:45;1.40;;;1.30;;
8291;SDS011;4184;42.724;23.308;2022-09-13T13:00:23;1.97;;;1.50;;
8291;SDS011;4184;42.724;23.308;2022-09-13T13:02:58;1.50;;;1.40;;
8291;SDS011;4184;42.724;23.308;2022-09-13T13:05:37;1.60;;;1.50;;
8291;SDS011;4184;42.724;23.308;2022-09-13T13:08:16;1.77;;;1.63;;
8291;SDS011;4184;42.724;23.308;2022-09-13T13:11:00;4.07;;;1.80;;
8291;SDS011;4184;42.724;23.308;2022-09-13T13:13:32;1.63;;;1.43;;
8291;SDS011;4184;42.724;23.308;2022-09-13T13:16:04;1.50;;;1.40;;
8291;SDS011;4184;42.724;23.308;2022-09-13T13:18:47;1.70;;;1.60;;
8291;SDS011;4184;42.724;23.308;2022-09-13T13:33:21;1.80;;;1.70;;
8291;SDS011;4184;42.724;23.308;2022-09-13T13:35:51;1.70;;;1.60;;
8291;SDS011;4184;42.724;23.308;2022-09-13T13:38:32;1.87;;;1.70;;
8291;SDS011;4184;42.724;23.308;2022-09-13T13:41:07;1.70;;;1.60;;
8291;SDS011;4184;42.724;23.308;2022-09-13T13:43:49;1.87;;;1.77;;
8291;SDS011;4184;42.724;23.308;2022-09-13T13:46:24;2.10;;;1.90;;
8291;SDS011;4184;42.724;23.308;2022-09-13T13:48:54;2.10;;;1.90;;
8291;SDS011;4184;42.724;23.308;2022-09-13T13:51:25;2.40;;;2.20;;
8291;SDS011;4184;42.724;23.308;2022-09-13T13:53:59;2.33;;;2.10;;
8291;SDS011;4184;42.724;23.308;2022-09-13T13:56:46;2.27;;;2.07;;
8291;SDS011;4184;42.724;23.308;2022-09-13T13:59:24;2.00;;;1.90;;
8291;SDS011;4184;42.724;23.308;2022-09-13T14:01:57;2.10;;;1.90;;
8291;SDS011;4184;42.724;23.308;2022-09-13T14:04:42;3.40;;;2.10;;
8291;SDS011;4184;42.724;23.308;2022-09-13T14:07:48;3.60;;;2.10;;
8291;SDS011;4184;42.724;23.308;2022-09-13T14:10:38;2.03;;;1.93;;
8291;SDS011;4184;42.724;23.308;2022-09-13T14:13:34;2.33;;;2.13;;
8291;SDS011;4184;42.724;23.308;2022-09-13T14:16:20;2.20;;;2.00;;
8291;SDS011;4184;42.724;23.308;2022-09-13T14:19:01;2.00;;;1.90;;
8291;SDS011;4184;42.724;23.308;2022-09-13T14:21:48;2.17;;;2.00;;
8291;SDS011;4184;42.724;23.308;2022-09-13T14:24:35;2.47;;;1.80;;
8291;SDS011;4184;42.724;23.308;2022-09-13T14:27:05;2.73;;;1.90;;
8291;SDS011;4184;42.724;23.308;2022-09-13T14:29:38;2.20;;;2.00;;
8291;SDS011;4184;42.724;23.308;2022-09-13T14:32:10;2.60;;;2.40;;
8291;SDS011;4184;42.724;23.308;2022-09-13T14:34:49;3.77;;;2.17;;
8291;SDS011;4184;42.724;23.308;2022-09-13T14:37:23;2.20;;;2.00;;
8291;SDS011;4184;42.724;23.308;2022-09-13T14:39:57;2.57;;;2.37;;
8291;SDS011;4184;42.724;23.308;2022-09-13T14:42:36;2.20;;;2.10;;
8291;SDS011;4184;42.724;23.308;2022-09-13T14:45:04;2.40;;;2.20;;
8291;SDS011;4184;42.724;23.308;2022-09-13T14:47:39;2.40;;;2.20;;
8291;SDS011;4184;42.724;23.308;2022-09-13T14:50:13;2.37;;;2.13;;
8291;SDS011;4184;42.724;23.308;2022-09-13T14:52:46;2.30;;;2.07;;
8291;SDS011;4184;42.724;23.308;2022-09-13T14:55:17;2.20;;;2.00;;
8291;SDS011;4184;42.724;23.308;2022-09-13T14:57:54;1.97;;;1.87;;
8291;SDS011;4184;42.724;23.308;2022-09-13T15:00:26;2.40;;;2.20;;
8291;SDS011;4184;42.724;23.308;2022-09-13T15:02:55;2.40;;;2.20;;
8291;SDS011;4184;42.724;23.308;2022-09-13T15:05:26;2.30;;;2.10;;
8291;SDS011;4184;42.724;23.308;2022-09-13T15:07:57;2.60;;;2.10;;
8291;SDS011;4184;42.724;23.308;2022-09-13T15:10:26;1.80;;;1.70;;
8291;SDS011;4184;42.724;23.308;2022-09-13T15:13:07;2.43;;;2.07;;
8291;SDS011;4184;42.724;23.308;2022-09-13T15:15:36;2.30;;;2.10;;
8291;SDS011;4184;42.724;23.308;2022-09-13T15:18:05;2.13;;;2.03;;
8291;SDS011;4184;42.724;23.308;2022-09-13T15:20:49;2.00;;;1.90;;
8291;SDS011;4184;42.724;23.308;2022-09-13T15:23:19;2.57;;;2.37;;
8291;SDS011;4184;42.724;23.308;2022-09-13T15:25:54;2.10;;;2.00;;
8291;SDS011;4184;42.724;23.308;2022-09-13T15:28:25;2.60;;;2.30;;
8291;SDS011;4184;42.724;23.308;2022-09-13T15:30:54;2.33;;;2.20;;
8291;SDS011;4184;42.724;23.308;2022-09-13T15:33:25;2.57;;;2.23;;
8291;SDS011;4184;42.724;23.308;2022-09-13T15:38:57;2.20;;;2.00;;
8291;SDS011;4184;42.724;23.308;2022-09-13T15:41:27;2.50;;;2.30;;
8291;SDS011;4184;42.724;23.308;2022-09-13T15:43:58;2.33;;;2.13;;
8291;SDS011;4184;42.724;23.308;2022-09-13T15:46:27;2.33;;;2.13;;
8291;SDS011;4184;42.724;23.308;2022-09-13T15:48:55;2.30;;;2.10;;
8291;SDS011;4184;42.724;23.308;2022-09-13T15:51:24;2.07;;;1.97;;
8291;SDS011;4184;42.724;23.308;2022-09-13T15:53:52;2.93;;;2.27;;
8291;SDS011;4184;42.724;23.308;2022-09-13T15:56:20;2.37;;;2.17;;
8291;SDS011;4184;42.724;23.308;2022-09-13T15:58:53;2.23;;;2.03;;
8291;SDS011;4184;42.724;23.308;2022-09-13T16:01:22;2.87;;;2.57;;
8291;SDS011;4184;42.724;23.308;2022-09-13T16:03:51;2.17;;;1.97;;
8291;SDS011;4184;42.724;23.308;2022-09-13T16:06:19;2.30;;;2.10;;
8291;SDS011;4184;42.724;23.308;2022-09-13T16:08:47;2.13;;;2.03;;
8291;SDS011;4184;42.724;23.308;2022-09-13T16:11:14;2.27;;;2.07;;
8291;SDS011;4184;42.724;23.308;2022-09-13T16:13:42;2.40;;;2.20;;
8291;SDS011;4184;42.724;23.308;2022-09-13T16:16:10;2.27;;;2.07;;